This is the latest recevied weather packets stored in our database for station/object DK4EP-10. If no packets are shown the sender has not sent any weather packets the latest 10 day(s).
| Time | Temp. | Humidity | Pressure | Rain* | Wind** | Luminosity | Snow |
|---|---|---|---|---|---|---|---|
| 1777567596 | 17.22° C | 46% | 1005 hPa | - | - | - | - |
| 1777566695 | 18.33° C | 45% | 1005 hPa | - | - | - | - |
| 1777565794 | 20.56° C | 44% | 1006 hPa | - | - | - | - |
| 1777564893 | 21.11° C | 41% | 1006 hPa | - | - | - | - |
| 1777563991 | 18.33° C | 44% | 1006 hPa | - | - | - | - |
| 1777563090 | 19.44° C | 44% | 1006 hPa | - | - | - | - |
| 1777562189 | 20.56° C | 41% | 1006 hPa | - | - | - | - |
| 1777561288 | 21.67° C | 41% | 1006 hPa | - | - | - | - |
| 1777560387 | 21.11° C | 42% | 1006 hPa | - | - | - | - |
| 1777559485 | 18.89° C | 44% | 1006 hPa | - | - | - | - |
| 1777557683 | 17.22° C | 48% | 1007 hPa | - | - | - | - |
| 1777556782 | 19.44° C | 45% | 1007 hPa | - | - | - | - |
| 1777555880 | 17.78° C | 46% | 1007 hPa | - | - | - | - |
| 1777554979 | 21.11° C | 40% | 1007 hPa | - | - | - | - |
| 1777554078 | 18.89° C | 43% | 1007 hPa | - | - | - | - |
| 1777553177 | 18.89° C | 44% | 1007 hPa | - | - | - | - |
| 1777552276 | 17.22° C | 41% | 1007 hPa | - | - | - | - |
| 1777551375 | 17.78° C | 43% | 1007 hPa | - | - | - | - |
| 1777550473 | 19.44° C | 41% | 1007 hPa | - | - | - | - |
| 1777549572 | 18.33° C | 42% | 1008 hPa | - | - | - | - |
| 1777548671 | 18.89° C | 43% | 1008 hPa | - | - | - | - |
| 1777547770 | 17.22° C | 42% | 1008 hPa | - | - | - | - |
| 1777546869 | 17.78° C | 41% | 1008 hPa | - | - | - | - |
| 1777545967 | 17.22° C | 42% | 1008 hPa | - | - | - | - |
| 1777545066 | 16.67° C | 42% | 1008 hPa | - | - | - | - |
* Rain since midnight (hover to see other rain measurements)
** Current wind speed in m/s (hover to see current wind gust speed)